Time;durP1;ratioP1;P1;durP2;ratioP2;P2;SDS_P1;SDS_P2;PMS_P1;PMS_P2;Temp;Humidity;BMP_temperature;BMP_pressure;BME280_temperature;BME280_humidity;BME280_pressure;Samples;Min_cycle;Max_cycle;Signal;HPM_P1;HPM_P2
2023/09/16 00:00:45;;;;;;;5.38;3.42;;;;;;;16.43;92.21;100902.56;5039407;28;20059;-67
2023/09/16 00:03:10;;;;;;;6.93;3.92;;;;;;;16.41;92.96;100906.97;5034369;28;20052;-67
2023/09/16 00:05:38;;;;;;;7.95;4.22;;;;;;;16.39;93.26;100903.53;5036348;28;20030;-67
2023/09/16 00:08:05;;;;;;;5.90;3.70;;;;;;;16.35;93.54;100900.19;5038504;28;20105;-67
2023/09/16 00:10:31;;;;;;;8.48;4.28;;;;;;;16.32;94.02;100895.06;5029113;28;20117;-67
2023/09/16 00:12:57;;;;;;;5.75;4.15;;;;;;;16.28;93.90;100902.13;5040804;28;20036;-68
2023/09/16 00:15:22;;;;;;;6.10;3.65;;;;;;;16.26;93.99;100892.66;5039773;28;20108;-67
2023/09/16 00:17:47;;;;;;;5.25;3.88;;;;;;;16.23;94.00;100897.94;5034604;28;20033;-67
2023/09/16 00:20:15;;;;;;;5.25;3.50;;;;;;;16.21;94.13;100894.50;5037907;28;20029;-68
2023/09/16 00:22:45;;;;;;;5.20;3.88;;;;;;;16.19;94.50;100896.31;5033959;28;20037;-68
2023/09/16 00:25:11;;;;;;;4.60;3.30;;;;;;;16.19;94.57;100885.88;5040978;28;20036;-67
2023/09/16 00:27:39;;;;;;;5.97;4.00;;;;;;;16.21;94.34;100895.38;5033699;28;20025;-67
2023/09/16 00:30:05;;;;;;;5.57;3.78;;;;;;;16.26;94.08;100893.50;5040754;28;20025;-68
2023/09/16 00:32:31;;;;;;;6.75;4.43;;;;;;;16.32;93.59;100879.41;5037939;28;20029;-68
2023/09/16 00:34:58;;;;;;;4.93;3.83;;;;;;;16.36;93.17;100885.38;5034557;28;20044;-68
2023/09/16 00:37:23;;;;;;;8.20;3.80;;;;;;;16.40;93.15;100876.56;5024346;28;20028;-68
2023/09/16 00:39:48;;;;;;;5.75;3.60;;;;;;;16.41;92.82;100884.34;5034457;28;20039;-67
2023/09/16 00:42:14;;;;;;;4.80;3.55;;;;;;;16.43;92.48;100873.84;5026770;28;20056;-67
2023/09/16 00:44:40;;;;;;;4.38;3.33;;;;;;;16.44;92.45;100881.66;5036093;28;20064;-68
2023/09/16 00:47:05;;;;;;;5.03;3.20;;;;;;;16.45;92.13;100877.25;5039278;28;20512;-68
2023/09/16 00:49:31;;;;;;;5.53;3.55;;;;;;;16.45;92.09;100872.91;5038592;28;20538;-68
2023/09/16 00:51:57;;;;;;;6.22;3.63;;;;;;;16.45;91.71;100872.91;5033317;28;20687;-68
2023/09/16 00:54:23;;;;;;;4.18;3.30;;;;;;;16.43;91.73;100872.09;5032514;28;20036;-68
2023/09/16 00:56:49;;;;;;;7.40;3.92;;;;;;;16.41;92.05;100873.94;5019970;28;20415;-67
2023/09/16 00:59:17;;;;;;;5.07;3.67;;;;;;;16.37;92.17;100874.03;5034082;28;20060;-67
2023/09/16 01:01:49;;;;;;;4.32;3.53;;;;;;;16.33;92.03;100876.75;5030713;28;20067;-67
2023/09/16 01:04:19;;;;;;;4.55;3.72;;;;;;;16.29;92.22;100882.13;5031324;28;20116;-67
2023/09/16 01:06:47;;;;;;;4.82;3.65;;;;;;;16.23;92.20;100882.28;5035523;28;20492;-67
2023/09/16 01:09:15;;;;;;;8.02;3.83;;;;;;;16.19;92.73;100885.88;5037956;28;20112;-67
2023/09/16 01:11:41;;;;;;;4.80;3.35;;;;;;;16.14;93.03;100887.78;5039235;28;20045;-67
2023/09/16 01:14:07;;;;;;;5.13;3.63;;;;;;;16.10;93.55;100884.41;5032316;28;20095;-68
2023/09/16 01:16:40;;;;;;;5.95;3.85;;;;;;;16.08;93.65;100882.75;5036031;28;20041;-63
2023/09/16 01:19:16;;;;;;;7.18;4.20;;;;;;;16.05;93.38;100882.81;5030421;28;20046;-62
2023/09/16 01:21:43;;;;;;;6.22;4.13;;;;;;;16.03;94.05;100877.66;5038128;28;20083;-62
2023/09/16 01:24:19;;;;;;;8.80;4.60;;;;;;;16.02;94.11;100882.91;5035844;28;20467;-63
2023/09/16 01:26:46;;;;;;;6.28;4.13;;;;;;;15.97;94.33;100879.59;5015628;28;20080;-63
2023/09/16 01:29:13;;;;;;;5.50;3.95;;;;;;;15.93;94.42;100878.81;5038967;28;20120;-62
2023/09/16 01:31:40;;;;;;;5.70;3.88;;;;;;;15.89;94.96;100876.34;5034234;28;20030;-62
2023/09/16 01:34:13;;;;;;;5.63;4.28;;;;;;;15.85;95.06;100864.31;5035531;28;20025;-62
2023/09/16 01:36:40;;;;;;;9.15;3.83;;;;;;;15.82;95.09;100870.44;5031890;28;20028;-62
2023/09/16 01:39:08;;;;;;;6.10;3.60;;;;;;;15.79;95.41;100877.50;5036755;28;20049;-60
2023/09/16 01:41:35;;;;;;;6.53;4.32;;;;;;;15.75;95.29;100867.16;5037153;28;20103;-60
2023/09/16 01:44:02;;;;;;;6.57;3.83;;;;;;;15.73;95.63;100876.75;5034536;28;20039;-60
2023/09/16 01:46:28;;;;;;;7.28;4.15;;;;;;;15.68;96.16;100868.22;5028769;28;20083;-60
2023/09/16 01:48:53;;;;;;;6.72;4.07;;;;;;;15.66;96.39;100870.03;5033594;28;20030;-60
2023/09/16 01:51:19;;;;;;;7.18;4.63;;;;;;;15.66;96.39;100867.41;5037723;28;20040;-60
2023/09/16 01:53:44;;;;;;;7.65;4.72;;;;;;;15.64;96.46;100868.34;5019159;28;20044;-60
2023/09/16 01:56:09;;;;;;;7.20;4.20;;;;;;;15.60;96.26;100864.09;5039466;28;20040;-60
2023/09/16 01:58:35;;;;;;;5.72;4.03;;;;;;;15.58;96.33;100858.06;5032783;28;20550;-60
2023/09/16 02:01:08;;;;;;;6.05;3.70;;;;;;;15.55;96.85;100861.59;5033751;28;20111;-61
2023/09/16 02:03:37;;;;;;;4.55;3.95;;;;;;;15.53;96.67;100863.38;5033160;28;20048;-61
2023/09/16 02:06:05;;;;;;;5.05;4.50;;;;;;;15.50;96.93;100854.78;5027943;28;20046;-63
2023/09/16 02:08:31;;;;;;;5.32;4.03;;;;;;;15.48;97.34;100857.47;5035821;28;20021;-62
2023/09/16 02:10:56;;;;;;;7.07;4.43;;;;;;;15.46;97.04;100851.44;5035478;28;20094;-63
2023/09/16 02:13:22;;;;;;;8.95;4.63;;;;;;;15.42;97.69;100855.00;5035759;28;20029;-63
2023/09/16 02:15:47;;;;;;;7.18;4.03;;;;;;;15.41;97.75;100862.84;5037715;28;20112;-60
2023/09/16 02:18:13;;;;;;;6.13;4.10;;;;;;;15.38;97.67;100858.59;5035389;28;20037;-60
2023/09/16 02:20:38;;;;;;;6.15;4.22;;;;;;;15.36;98.13;100859.53;5036097;28;20025;-60
2023/09/16 02:23:03;;;;;;;4.90;3.80;;;;;;;15.34;98.38;100867.41;5026562;28;20029;-60
2023/09/16 02:25:32;;;;;;;7.40;4.55;;;;;;;15.32;98.77;100855.28;5032807;28;20045;-60
2023/09/16 02:27:58;;;;;;;8.15;4.65;;;;;;;15.32;98.38;100853.53;5032201;28;20103;-61
2023/09/16 02:30:23;;;;;;;5.43;4.45;;;;;;;15.28;98.51;100859.75;5032685;28;21309;-60
2023/09/16 02:32:48;;;;;;;5.55;4.10;;;;;;;15.26;98.63;100850.22;5030354;28;20652;-60
2023/09/16 02:35:14;;;;;;;5.85;4.20;;;;;;;15.27;99.17;100852.81;5030004;28;20034;-60
2023/09/16 02:37:39;;;;;;;7.57;4.80;;;;;;;15.26;99.01;100847.63;5037701;28;20040;-60
2023/09/16 02:40:05;;;;;;;6.53;5.03;;;;;;;15.28;99.46;100851.06;5036946;28;20037;-60
2023/09/16 02:42:30;;;;;;;6.07;4.75;;;;;;;15.28;99.21;100851.06;5041075;28;20056;-60
2023/09/16 02:44:56;;;;;;;6.20;4.43;;;;;;;15.28;99.02;100845.88;5031711;28;20065;-62
2023/09/16 02:47:21;;;;;;;6.45;4.13;;;;;;;15.27;98.81;100845.00;5035127;28;20029;-63
2023/09/16 02:49:47;;;;;;;7.00;4.82;;;;;;;15.25;98.76;100846.81;5033348;28;20030;-60
2023/09/16 02:52:14;;;;;;;6.00;3.88;;;;;;;15.24;98.82;100855.50;5036945;28;20036;-60
2023/09/16 02:54:39;;;;;;;5.40;3.85;;;;;;;15.22;98.86;100854.69;5034847;28;20028;-61
2023/09/16 02:57:05;;;;;;;5.28;4.10;;;;;;;15.20;99.18;100854.72;5034231;28;20075;-60
2023/09/16 02:59:30;;;;;;;6.07;4.25;;;;;;;15.19;98.74;100849.56;5035620;28;20033;-60
2023/09/16 03:01:55;;;;;;;6.38;4.22;;;;;;;15.18;98.83;100855.66;5030236;28;20032;-63
2023/09/16 03:04:21;;;;;;;5.60;4.05;;;;;;;15.18;99.19;100860.88;5034999;28;20445;-64
2023/09/16 03:06:46;;;;;;;4.90;3.58;;;;;;;15.18;99.03;100861.72;5031672;28;20741;-59
2023/09/16 03:09:12;;;;;;;7.90;4.13;;;;;;;15.18;98.84;100858.25;5042745;28;20065;-59
2023/09/16 03:11:37;;;;;;;6.93;4.13;;;;;;;15.18;99.18;100858.25;5036900;28;20029;-59
2023/09/16 03:14:02;;;;;;;6.32;4.30;;;;;;;15.16;99.26;100854.84;5032247;28;20037;-59
2023/09/16 03:16:28;;;;;;;6.22;4.10;;;;;;;15.12;99.73;100853.22;5034700;28;20055;-59
2023/09/16 03:18:54;;;;;;;7.07;4.60;;;;;;;15.10;100.00;100853.25;5031010;28;20117;-58
2023/09/16 03:21:23;;;;;;;6.80;3.90;;;;;;;15.09;99.89;100843.72;5035807;28;20037;-59
2023/09/16 03:23:48;;;;;;;6.45;4.20;;;;;;;15.06;100.00;100846.41;5032962;28;20080;-59
2023/09/16 03:26:15;;;;;;;5.05;3.67;;;;;;;15.05;100.00;100843.81;5031716;28;20041;-59
2023/09/16 03:28:43;;;;;;;6.72;4.03;;;;;;;15.03;100.00;100843.03;5025096;28;20443;-59
2023/09/16 03:31:08;;;;;;;5.80;3.85;;;;;;;15.03;100.00;100848.22;5028750;28;20091;-59
2023/09/16 03:33:34;;;;;;;5.47;4.25;;;;;;;15.02;100.00;100844.78;5026857;28;20029;-59
2023/09/16 03:36:00;;;;;;;6.35;3.92;;;;;;;15.04;100.00;100849.94;5033061;28;20034;-58
2023/09/16 03:38:29;;;;;;;6.68;4.78;;;;;;;15.03;100.00;100843.03;5038654;28;20052;-59
2023/09/16 03:40:55;;;;;;;9.52;5.15;;;;;;;14.99;100.00;100841.41;5032943;28;20034;-59
2023/09/16 03:43:20;;;;;;;8.32;5.10;;;;;;;14.99;100.00;100838.81;5035175;28;20031;-58
2023/09/16 03:45:45;;;;;;;4.95;4.38;;;;;;;14.99;100.00;100838.81;5033000;28;20144;-58
2023/09/16 03:48:11;;;;;;;5.28;4.45;;;;;;;14.98;100.00;100830.13;5031503;28;20152;-60
2023/09/16 03:50:36;;;;;;;8.52;4.95;;;;;;;14.98;100.00;100826.69;5034657;28;20516;-59
2023/09/16 03:53:01;;;;;;;7.40;4.65;;;;;;;14.98;100.00;100835.34;5016809;28;20044;-58
2023/09/16 03:55:27;;;;;;;8.43;5.10;;;;;;;14.97;100.00;100835.38;5029028;28;20120;-58
2023/09/16 03:57:52;;;;;;;6.43;5.32;;;;;;;15.01;100.00;100835.28;5033640;28;20052;-58
2023/09/16 04:00:18;;;;;;;9.68;5.20;;;;;;;15.01;100.00;100830.06;5038960;28;20068;-59
2023/09/16 04:02:43;;;;;;;6.80;4.70;;;;;;;14.99;100.00;100826.63;5026666;28;20056;-58
2023/09/16 04:05:09;;;;;;;9.18;4.40;;;;;;;14.96;100.00;100824.09;5033319;28;20500;-58
2023/09/16 04:07:34;;;;;;;7.80;4.75;;;;;;;14.93;100.00;100824.19;5006865;28;20047;-60
2023/09/16 04:09:59;;;;;;;8.43;5.30;;;;;;;14.90;100.00;100826.84;5036241;28;20692;-59
2023/09/16 04:12:26;;;;;;;8.43;5.47;;;;;;;14.90;100.00;100824.25;5035608;28;20078;-60
2023/09/16 04:14:51;;;;;;;5.97;4.93;;;;;;;14.90;100.00;100818.22;5034383;28;20523;-60
2023/09/16 04:17:17;;;;;;;7.47;5.50;;;;;;;14.91;100.00;100819.91;5036284;28;20120;-67
2023/09/16 04:19:42;;;;;;;7.13;4.97;;;;;;;14.89;100.00;100812.16;5035561;28;20053;-58
2023/09/16 04:22:07;;;;;;;6.05;4.78;;;;;;;14.90;100.00;100813.00;5031372;28;20052;-60
2023/09/16 04:24:33;;;;;;;5.93;4.70;;;;;;;14.88;100.00;100810.44;5028360;28;20523;-59
2023/09/16 04:26:58;;;;;;;6.30;4.78;;;;;;;14.87;100.00;100816.53;5035152;28;20056;-58
2023/09/16 04:29:24;;;;;;;4.68;4.13;;;;;;;14.85;100.00;100815.72;5025102;28;20034;-58
2023/09/16 04:31:51;;;;;;;5.53;4.50;;;;;;;14.83;100.00;100817.50;5033596;28;20064;-67
2023/09/16 04:34:16;;;;;;;6.18;4.50;;;;;;;14.82;100.00;100820.13;5036720;28;20037;-67
2023/09/16 04:36:42;;;;;;;5.80;4.60;;;;;;;14.79;100.00;100810.66;5028648;28;20033;-67
2023/09/16 04:39:08;;;;;;;5.30;3.90;;;;;;;14.77;100.00;100822.88;5021676;28;20162;-67
2023/09/16 04:41:34;;;;;;;9.07;5.68;;;;;;;14.76;100.00;100815.06;5030985;28;20041;-67
2023/09/16 04:43:59;;;;;;;5.15;4.43;;;;;;;14.74;100.00;100809.94;5027739;28;20033;-68
2023/09/16 04:46:24;;;;;;;10.90;5.47;;;;;;;14.76;100.00;100812.47;5035114;28;20044;-67
2023/09/16 04:48:50;;;;;;;6.55;4.75;;;;;;;14.74;100.00;100812.53;5017835;28;20487;-67
2023/09/16 04:51:15;;;;;;;6.35;4.57;;;;;;;14.74;100.00;100814.28;5025006;28;20044;-67
2023/09/16 04:53:41;;;;;;;7.88;4.38;;;;;;;14.72;100.00;100816.06;5030346;28;20155;-67
2023/09/16 04:56:09;;;;;;;6.25;4.63;;;;;;;14.71;100.00;100809.13;5029343;28;20040;-67
2023/09/16 04:58:35;;;;;;;7.47;4.88;;;;;;;14.72;100.00;100810.88;5034620;28;20499;-68
2023/09/16 05:01:01;;;;;;;6.30;5.03;;;;;;;14.70;100.00;100805.69;5027586;28;20037;-67
2023/09/16 05:03:27;;;;;;;6.35;4.88;;;;;;;14.69;100.00;100803.13;5028027;28;20032;-67
2023/09/16 05:05:53;;;;;;;8.32;4.60;;;;;;;14.66;100.00;100807.50;5021857;28;20034;-59
2023/09/16 05:08:19;;;;;;;7.28;4.88;;;;;;;14.66;100.00;100804.91;5031375;28;20033;-59
2023/09/16 05:10:45;;;;;;;6.93;4.80;;;;;;;14.65;100.00;100804.94;5025825;28;20047;-60
2023/09/16 05:13:10;;;;;;;5.15;4.28;;;;;;;14.64;100.00;100811.88;5018977;28;20033;-60
2023/09/16 05:15:35;;;;;;;4.95;4.25;;;;;;;14.62;100.00;100802.41;5029050;28;20060;-60
2023/09/16 05:18:01;;;;;;;6.32;4.93;;;;;;;14.62;100.00;100805.03;5033310;28;20125;-60
2023/09/16 05:20:26;;;;;;;7.28;4.97;;;;;;;14.64;100.00;100814.50;5014551;28;20380;-59
2023/09/16 05:22:52;;;;;;;7.03;5.07;;;;;;;14.66;100.00;100812.69;5030255;28;20029;-60
2023/09/16 05:25:17;;;;;;;6.75;5.25;;;;;;;14.66;100.00;100815.31;5031548;28;20083;-59
2023/09/16 05:27:43;;;;;;;5.22;4.63;;;;;;;14.68;100.00;100814.41;5028949;28;20785;-60
2023/09/16 05:30:09;;;;;;;6.88;5.15;;;;;;;14.69;100.00;100808.34;5027135;28;20384;-60
2023/09/16 05:32:34;;;;;;;7.72;4.82;;;;;;;14.73;100.00;100810.81;5011423;28;20049;-60
2023/09/16 05:35:00;;;;;;;7.55;5.00;;;;;;;14.76;100.00;100808.13;5030384;28;20157;-60
2023/09/16 05:37:25;;;;;;;6.78;5.20;;;;;;;14.81;100.00;100803.66;5027202;28;20551;-59
2023/09/16 05:39:51;;;;;;;7.53;5.28;;;;;;;14.87;100.00;100813.09;5033754;28;20027;-60
2023/09/16 05:42:16;;;;;;;6.68;5.45;;;;;;;14.92;100.00;100798.19;5013197;28;20403;-60
2023/09/16 05:44:41;;;;;;;9.60;5.75;;;;;;;14.96;100.00;100795.47;5029452;28;20044;-59
2023/09/16 05:47:06;;;;;;;7.35;5.28;;;;;;;15.00;100.00;100794.50;5035346;28;20033;-67
2023/09/16 05:49:32;;;;;;;10.98;5.22;;;;;;;15.03;100.00;100799.63;5030618;28;20515;-67
2023/09/16 05:51:57;;;;;;;6.28;5.05;;;;;;;15.06;100.00;100798.69;5031756;28;20034;-67
2023/09/16 05:54:25;;;;;;;6.68;4.80;;;;;;;15.09;100.00;100803.81;5028460;28;20164;-67
2023/09/16 05:56:51;;;;;;;4.88;3.97;;;;;;;15.12;100.00;100808.94;5031241;28;20029;-67
2023/09/16 05:59:16;;;;;;;5.82;4.60;;;;;;;15.15;100.00;100811.47;5031112;28;20040;-60
2023/09/16 06:01:41;;;;;;;7.00;5.45;;;;;;;15.16;100.00;100816.66;5030489;28;20069;-60
2023/09/16 06:04:08;;;;;;;6.20;4.40;;;;;;;15.22;100.00;100815.63;5030020;28;20049;-59
2023/09/16 06:06:34;;;;;;;7.55;5.68;;;;;;;15.29;100.00;100817.16;5016306;28;20181;-60
2023/09/16 06:08:59;;;;;;;8.73;5.50;;;;;;;15.39;100.00;100810.81;5032018;28;20759;-60
2023/09/16 06:11:28;;;;;;;6.85;5.80;;;;;;;15.48;100.00;100812.31;5020444;28;20036;-60
2023/09/16 06:13:54;;;;;;;5.75;5.00;;;;;;;15.53;100.00;100800.88;5031380;28;20040;-59
2023/09/16 06:16:19;;;;;;;6.32;4.85;;;;;;;15.59;100.00;100816.31;5038055;28;20041;-60
2023/09/16 06:18:44;;;;;;;6.85;4.75;;;;;;;15.72;100.00;100817.72;5026964;28;20033;-59
2023/09/16 06:21:10;;;;;;;6.43;5.10;;;;;;;15.77;100.00;100817.59;5027176;28;20036;-60
2023/09/16 06:23:35;;;;;;;10.30;5.55;;;;;;;15.84;100.00;100818.28;5022950;28;20702;-60
2023/09/16 06:26:01;;;;;;;7.45;5.28;;;;;;;15.92;100.00;100819.75;5030078;28;20563;-60
2023/09/16 06:28:26;;;;;;;5.43;4.88;;;;;;;15.98;100.00;100818.72;5031871;28;20159;-60
2023/09/16 06:30:52;;;;;;;8.82;5.63;;;;;;;16.06;100.00;100819.34;5028494;28;20059;-63
2023/09/16 06:33:17;;;;;;;6.35;5.40;;;;;;;16.17;100.00;100817.28;5031816;28;20029;-63
2023/09/16 06:35:42;;;;;;;7.35;5.07;;;;;;;16.30;99.33;100815.97;5029738;28;20061;-63
2023/09/16 06:38:08;;;;;;;6.65;5.20;;;;;;;16.37;98.92;100808.81;5025398;28;20041;-63
2023/09/16 06:40:33;;;;;;;8.30;5.18;;;;;;;16.47;98.11;100807.66;5028169;28;20029;-63
2023/09/16 06:42:58;;;;;;;8.32;4.97;;;;;;;16.55;97.96;100822.16;5032309;28;20037;-65
2023/09/16 06:45:24;;;;;;;6.55;5.40;;;;;;;16.62;98.35;100821.03;5020387;28;20117;-63
2023/09/16 06:47:49;;;;;;;7.50;6.13;;;;;;;16.74;97.09;100811.97;5040054;28;20043;-62
2023/09/16 06:50:14;;;;;;;10.18;6.32;;;;;;;16.80;96.91;100815.25;5033246;28;20029;-62
2023/09/16 06:52:40;;;;;;;6.88;5.50;;;;;;;16.88;96.76;100817.63;5024822;28;20076;-63
2023/09/16 06:55:05;;;;;;;8.48;5.57;;;;;;;16.99;95.82;100818.13;5036808;28;20619;-58
2023/09/16 06:57:31;;;;;;;8.48;5.32;;;;;;;17.13;94.95;100817.63;5012776;28;20029;-58
2023/09/16 06:59:57;;;;;;;8.35;5.60;;;;;;;17.21;94.33;100826.94;5015492;28;20132;-58
2023/09/16 07:02:22;;;;;;;8.25;5.38;;;;;;;17.28;94.57;100825.81;5023864;28;20095;-58
2023/09/16 07:04:49;;;;;;;10.77;5.88;;;;;;;17.34;94.18;100817.75;5030167;28;20040;-58
2023/09/16 07:07:14;;;;;;;7.10;5.30;;;;;;;17.36;93.91;100821.16;5023308;28;20036;-58
2023/09/16 07:09:40;;;;;;;6.57;5.22;;;;;;;17.40;93.19;100817.53;5032016;28;20053;-58
2023/09/16 07:12:06;;;;;;;8.18;5.50;;;;;;;17.45;92.54;100814.78;5032077;28;20025;-58
2023/09/16 07:14:32;;;;;;;7.07;5.40;;;;;;;17.53;92.77;100823.19;5026311;28;20087;-58
2023/09/16 07:16:57;;;;;;;6.35;4.93;;;;;;;17.57;92.19;100811.72;5039381;28;20023;-58
2023/09/16 07:19:23;;;;;;;10.35;5.28;;;;;;;17.72;91.57;100812.91;5026709;28;20136;-58
2023/09/16 07:21:48;;;;;;;6.85;4.80;;;;;;;17.87;90.29;100804.50;5031871;28;20031;-58
2023/09/16 07:24:14;;;;;;;5.65;5.03;;;;;;;17.99;89.99;100811.91;5031445;28;20036;-58
2023/09/16 07:26:42;;;;;;;7.10;4.75;;;;;;;18.08;89.67;100819.41;5032089;28;20124;-58
2023/09/16 07:29:08;;;;;;;5.53;4.50;;;;;;;18.25;88.28;100809.16;5031942;28;20034;-58
2023/09/16 07:31:33;;;;;;;10.95;5.57;;;;;;;18.42;87.63;100816.31;5027146;28;20847;-59
2023/09/16 07:33:58;;;;;;;6.20;4.72;;;;;;;18.60;87.02;100812.97;5025260;28;20033;-58
2023/09/16 07:36:24;;;;;;;8.93;5.13;;;;;;;18.78;85.65;100804.38;5024833;28;20032;-58
2023/09/16 07:38:49;;;;;;;7.32;4.65;;;;;;;18.96;85.86;100808.88;5025994;28;20033;-58
2023/09/16 07:41:14;;;;;;;7.15;4.82;;;;;;;19.06;84.51;100794.47;5030661;28;20144;-59
2023/09/16 07:43:40;;;;;;;8.30;4.63;;;;;;;19.15;83.95;100800.22;5030407;28;20064;-58
2023/09/16 07:46:05;;;;;;;6.97;3.97;;;;;;;19.22;84.23;100810.38;5002540;28;20471;-58
2023/09/16 07:48:31;;;;;;;7.63;5.03;;;;;;;19.27;83.03;100797.06;5028627;28;20029;-58
2023/09/16 07:50:57;;;;;;;8.10;5.10;;;;;;;19.29;81.87;100797.88;5031426;28;20527;-59
2023/09/16 07:53:23;;;;;;;5.38;4.65;;;;;;;19.34;80.23;100795.91;5025777;28;20037;-59
2023/09/16 07:55:48;;;;;;;6.22;4.45;;;;;;;19.43;80.24;100801.59;5034357;28;20044;-58
2023/09/16 07:58:13;;;;;;;7.57;4.55;;;;;;;19.46;80.97;100798.84;5027025;28;20030;-58
2023/09/16 08:00:39;;;;;;;4.93;3.92;;;;;;;19.58;79.42;100792.19;5025352;28;20119;-59
2023/09/16 08:03:04;;;;;;;5.95;4.03;;;;;;;19.61;79.79;100802.53;5035007;28;20048;-58
2023/09/16 08:05:30;;;;;;;5.80;3.97;;;;;;;19.62;80.33;100805.06;5024628;28;20034;-58
2023/09/16 08:07:55;;;;;;;7.05;3.95;;;;;;;19.65;79.54;100798.00;5026044;28;20029;-59
2023/09/16 08:10:20;;;;;;;5.45;3.92;;;;;;;19.69;79.93;100810.03;5028061;28;20045;-59
2023/09/16 08:12:46;;;;;;;6.53;4.30;;;;;;;19.79;78.30;100783.38;5010160;28;20125;-59
2023/09/16 08:15:12;;;;;;;5.82;3.95;;;;;;;19.87;78.59;100794.38;5009417;28;20036;-62
2023/09/16 08:17:38;;;;;;;5.38;3.83;;;;;;;19.98;78.20;100793.84;5034573;28;20034;-62
2023/09/16 08:20:05;;;;;;;5.25;3.75;;;;;;;20.01;78.26;100799.81;5033108;28;20040;-63
2023/09/16 08:22:30;;;;;;;5.85;3.97;;;;;;;20.14;76.47;100793.09;5031362;28;20044;-63
2023/09/16 08:24:55;;;;;;;7.28;3.85;;;;;;;20.23;76.17;100794.41;5029502;28;20041;-62
2023/09/16 08:27:21;;;;;;;5.07;4.20;;;;;;;20.35;76.07;100799.09;5030139;28;20148;-58
2023/09/16 08:29:47;;;;;;;7.50;4.05;;;;;;;20.44;74.96;100796.03;5034915;28;20028;-58
2023/09/16 08:32:12;;;;;;;3.65;3.22;;;;;;;20.46;75.70;100807.28;5028553;28;20059;-58
2023/09/16 08:34:37;;;;;;;5.90;3.92;;;;;;;20.54;75.57;100807.75;5034477;28;20833;-67
2023/09/16 08:37:03;;;;;;;7.15;3.55;;;;;;;20.55;76.36;100819.97;5032455;28;20090;-66
2023/09/16 08:39:29;;;;;;;4.55;3.58;;;;;;;20.55;76.33;100825.22;5030955;28;20030;-67
2023/09/16 08:42:07;;;;;;;6.32;4.05;;;;;;;20.68;74.51;100792.19;5035569;28;20059;-67
2023/09/16 08:44:37;;;;;;;5.20;3.90;;;;;;;20.75;75.14;100802.44;5024089;28;20271;-67
2023/09/16 08:47:13;;;;;;;4.82;4.05;;;;;;;20.79;75.84;100811.84;5026091;28;20037;-67
2023/09/16 08:49:43;;;;;;;5.55;4.07;;;;;;;20.91;75.27;100804.22;5029028;28;20105;-67
2023/09/16 08:52:11;;;;;;;6.85;3.90;;;;;;;20.94;75.54;100805.84;5031525;28;20870;-67
2023/09/16 08:54:40;;;;;;;6.78;4.35;;;;;;;21.04;74.64;100800.06;5034536;28;20032;-67
2023/09/16 08:57:05;;;;;;;6.45;3.92;;;;;;;21.12;74.56;100802.28;5029384;28;20028;-67
2023/09/16 08:59:31;;;;;;;4.25;3.80;;;;;;;21.14;74.52;100796.00;5035131;28;20033;-67
2023/09/16 09:01:57;;;;;;;5.80;4.10;;;;;;;21.36;72.03;100763.34;5029086;28;20033;-67
2023/09/16 09:04:23;;;;;;;5.88;3.90;;;;;;;21.43;72.17;100760.31;5031796;28;20033;-67
2023/09/16 09:06:49;;;;;;;6.72;4.15;;;;;;;21.52;71.46;100757.19;5019051;28;20159;-68
2023/09/16 09:09:14;;;;;;;8.50;4.50;;;;;;;21.63;71.60;100765.41;5035425;28;20025;-62
2023/09/16 09:11:40;;;;;;;8.38;4.32;;;;;;;21.71;70.33;100738.66;5033376;28;20045;-61
2023/09/16 09:14:10;;;;;;;7.93;3.53;;;;;;;21.79;70.23;100753.09;5033567;28;20069;-61
2023/09/16 09:16:38;;;;;;;4.40;3.90;;;;;;;21.86;70.83;100764.13;5031558;28;20500;-62
2023/09/16 09:19:04;;;;;;;7.15;4.25;;;;;;;21.87;70.45;100759.72;5030158;28;20053;-61
2023/09/16 09:21:31;;;;;;;5.72;4.22;;;;;;;22.00;70.77;100771.25;5019722;28;20034;-62
2023/09/16 09:23:58;;;;;;;5.78;3.92;;;;;;;22.07;70.77;100784.03;5030052;28;20531;-62
2023/09/16 09:26:23;;;;;;;5.65;4.00;;;;;;;22.11;70.87;100782.06;5030824;28;20033;-62
2023/09/16 09:28:49;;;;;;;4.18;3.75;;;;;;;22.28;69.74;100760.91;5032725;28;20040;-62
2023/09/16 09:31:14;;;;;;;5.10;3.70;;;;;;;22.30;70.62;100782.72;5027604;28;20515;-63
2023/09/16 09:33:44;;;;;;;5.97;4.07;;;;;;;22.37;70.72;100786.72;5032568;28;20195;-62
2023/09/16 09:36:15;;;;;;;6.20;4.00;;;;;;;22.47;69.17;100760.75;5027951;28;20023;-62
2023/09/16 09:38:47;;;;;;;5.10;3.90;;;;;;;22.63;68.86;100772.06;5036886;28;20041;-63
2023/09/16 09:41:14;;;;;;;4.65;3.72;;;;;;;22.72;68.21;100763.63;5028498;28;20029;-62
2023/09/16 09:43:40;;;;;;;8.65;4.20;;;;;;;23.00;66.77;100740.00;5034701;28;20319;-58
2023/09/16 09:46:05;;;;;;;5.68;3.88;;;;;;;22.98;66.64;100744.50;5031152;28;20897;-58
2023/09/16 09:48:33;;;;;;;5.35;4.10;;;;;;;22.97;66.91;100755.16;5029778;28;20515;-58
2023/09/16 09:50:59;;;;;;;9.57;4.35;;;;;;;23.07;66.89;100754.50;5030171;28;20616;-63
2023/09/16 09:53:26;;;;;;;7.18;4.72;;;;;;;23.23;67.07;100759.72;5027872;28;20046;-62
2023/09/16 09:55:53;;;;;;;7.35;3.83;;;;;;;23.24;66.81;100761.44;5029578;28;20192;-62
2023/09/16 09:58:18;;;;;;;4.28;3.85;;;;;;;23.26;66.09;100749.84;5028384;28;20034;-67
2023/09/16 10:00:48;;;;;;;6.07;4.20;;;;;;;23.28;65.56;100744.47;5031572;28;20022;-69
2023/09/16 10:03:14;;;;;;;4.60;3.95;;;;;;;23.36;65.92;100750.13;5023979;28;20051;-60
2023/09/16 10:05:40;;;;;;;7.75;4.13;;;;;;;23.40;65.82;100749.84;5029468;28;20108;-60
2023/09/16 10:08:06;;;;;;;9.57;4.93;;;;;;;23.52;65.96;100753.50;5028654;28;20098;-61
2023/09/16 10:10:31;;;;;;;5.40;4.03;;;;;;;23.54;64.21;100722.59;5028749;28;20040;-61
2023/09/16 10:12:58;;;;;;;6.13;4.00;;;;;;;23.52;64.65;100734.19;5037927;28;20035;-61
2023/09/16 10:15:37;;;;;;;4.40;3.97;;;;;;;23.54;65.19;100737.59;5025262;28;20079;-62
2023/09/16 10:18:04;;;;;;;9.68;4.20;;;;;;;23.67;65.44;100746.44;5017857;28;20041;-62
2023/09/16 10:20:32;;;;;;;11.10;4.57;;;;;;;23.68;65.22;100745.50;5029235;28;20086;-62
2023/09/16 10:22:59;;;;;;;7.80;4.78;;;;;;;23.66;65.76;100771.16;5028051;28;20033;-62
2023/09/16 10:25:27;;;;;;;5.97;4.80;;;;;;;23.81;64.62;100741.13;5029975;28;20061;-61
2023/09/16 10:28:03;;;;;;;4.85;3.65;;;;;;;23.73;63.67;100725.78;5023370;28;20033;-61
2023/09/16 10:30:30;;;;;;;4.90;4.05;;;;;;;23.78;63.96;100728.97;5029202;28;20116;-62
2023/09/16 10:32:58;;;;;;;5.72;4.30;;;;;;;23.95;64.16;100728.81;5026485;28;20034;-61
2023/09/16 10:35:23;;;;;;;7.25;4.20;;;;;;;24.07;63.45;100729.81;5026447;28;20057;-62
2023/09/16 10:37:52;;;;;;;5.70;4.25;;;;;;;24.21;62.58;100705.97;5026674;28;20049;-61
2023/09/16 10:40:19;;;;;;;6.03;4.15;;;;;;;24.32;62.30;100707.91;5027674;28;20036;-61
2023/09/16 10:42:45;;;;;;;9.55;4.53;;;;;;;24.44;62.38;100715.88;5034817;28;20025;-61
2023/09/16 10:45:14;;;;;;;5.43;4.20;;;;;;;24.47;61.26;100685.75;5029728;28;20035;-60
2023/09/16 10:47:40;;;;;;;5.18;4.00;;;;;;;24.48;61.44;100698.88;5027612;28;20116;-60
2023/09/16 10:50:05;;;;;;;6.28;3.85;;;;;;;24.50;61.76;100715.47;5026758;28;20129;-60
2023/09/16 10:52:41;;;;;;;9.63;4.45;;;;;;;24.57;61.84;100709.75;5026682;28;20026;-60
2023/09/16 10:55:23;;;;;;;7.05;4.53;;;;;;;24.60;60.69;100689.25;5008923;28;20117;-60
2023/09/16 10:58:01;;;;;;;4.75;4.28;;;;;;;24.72;60.88;100693.75;5029824;28;20299;-60
2023/09/16 11:00:32;;;;;;;6.35;3.90;;;;;;;24.87;61.37;100699.78;5028680;28;20023;-60
2023/09/16 11:02:59;;;;;;;5.47;4.20;;;;;;;24.85;60.80;100696.38;5026010;28;20040;-60
2023/09/16 11:05:25;;;;;;;8.55;4.30;;;;;;;24.88;60.50;100693.53;5025828;28;20042;-60
2023/09/16 11:07:53;;;;;;;8.40;4.80;;;;;;;25.09;59.61;100662.97;5025490;28;20037;-60
2023/09/16 11:10:18;;;;;;;6.82;4.32;;;;;;;25.15;58.38;100654.59;5029030;28;20048;-60
2023/09/16 11:12:44;;;;;;;7.72;4.32;;;;;;;25.07;59.38;100655.16;5032614;28;20670;-60
2023/09/16 11:15:10;;;;;;;6.68;3.95;;;;;;;25.08;60.35;100677.16;5027784;28;20428;-59
2023/09/16 11:17:41;;;;;;;5.85;3.78;;;;;;;25.23;60.45;100683.16;5034492;28;20443;-60